createdAt,value
2022-08-23T00:02:01.898Z,96.90
2022-08-23T00:04:40.243Z,96.50
2022-08-23T00:07:28.067Z,96.60
2022-08-23T00:09:56.675Z,96.30
2022-08-23T00:12:25.581Z,96.20
2022-08-23T00:14:56.625Z,95.90
2022-08-23T00:17:33.745Z,95.80
2022-08-23T00:20:07.989Z,95.70
2022-08-23T00:22:36.044Z,95.60
2022-08-23T00:25:05.481Z,95.60
2022-08-23T00:27:33.378Z,95.50
2022-08-23T00:30:03.398Z,95.50
2022-08-23T00:32:34.351Z,95.50
2022-08-23T00:35:02.914Z,95.40
2022-08-23T00:37:32.745Z,95.40
2022-08-23T00:40:01.002Z,95.40
2022-08-23T00:43:12.446Z,95.30
2022-08-23T00:46:02.965Z,95.30
2022-08-23T00:48:31.892Z,95.20
2022-08-23T00:51:05.481Z,95.30
2022-08-23T00:53:38.865Z,95.40
2022-08-23T00:56:10.724Z,95.40
2022-08-23T00:58:38.274Z,95.40
2022-08-23T01:01:07.667Z,95.50
2022-08-23T01:03:42.069Z,95.60
2022-08-23T01:06:38.205Z,95.60
2022-08-23T01:09:13.160Z,95.60
2022-08-23T01:11:58.366Z,95.60
2022-08-23T01:14:43.697Z,95.60
2022-08-23T01:17:24.193Z,95.50
2022-08-23T01:19:57.759Z,95.50
2022-08-23T01:22:57.279Z,95.50
2022-08-23T01:25:27.703Z,95.50
2022-08-23T01:27:56.673Z,95.60
2022-08-23T01:30:31.418Z,95.70
2022-08-23T01:33:03.404Z,95.60
2022-08-23T01:35:43.132Z,95.70
2022-08-23T01:38:12.008Z,95.70
2022-08-23T01:40:40.553Z,95.70
2022-08-23T01:43:08.584Z,95.70
2022-08-23T01:45:36.814Z,95.80
2022-08-23T01:48:07.524Z,95.70
2022-08-23T01:53:08.018Z,95.80
2022-08-23T01:55:35.421Z,95.80
2022-08-23T01:58:05.341Z,95.80
2022-08-23T02:00:41.310Z,95.90
2022-08-23T02:03:09.268Z,95.90
2022-08-23T02:05:37.306Z,95.90
2022-08-23T02:08:24.761Z,95.90
2022-08-23T02:10:52.014Z,95.90
2022-08-23T02:13:19.232Z,96.30
2022-08-23T02:15:51.211Z,95.90
2022-08-23T02:18:20.473Z,96.00
2022-08-23T02:20:51.456Z,96.10
2022-08-23T02:23:19.805Z,96.20
2022-08-23T02:25:46.724Z,96.20
2022-08-23T02:28:13.637Z,96.30
2022-08-23T02:30:40.493Z,96.30
2022-08-23T02:33:07.382Z,96.40
2022-08-23T02:35:34.349Z,96.40
2022-08-23T02:38:11.544Z,96.50
2022-08-23T02:40:40.504Z,96.50
2022-08-23T02:43:08.404Z,96.50
2022-08-23T02:45:36.380Z,96.50
2022-08-23T02:48:04.892Z,96.60
2022-08-23T02:50:32.156Z,96.60
2022-08-23T02:52:59.426Z,96.70
2022-08-23T02:55:26.773Z,96.80
2022-08-23T02:57:53.936Z,96.80
2022-08-23T03:00:22.741Z,96.90
2022-08-23T03:02:49.578Z,97.00
2022-08-23T03:05:17.309Z,97.20
2022-08-23T03:07:45.047Z,97.30
2022-08-23T03:10:12.274Z,97.30
2022-08-23T03:12:39.417Z,97.40
2022-08-23T03:15:07.689Z,97.50
2022-08-23T03:17:35.369Z,97.50
2022-08-23T03:20:02.277Z,97.60
2022-08-23T03:22:29.151Z,97.60
2022-08-23T03:24:56.073Z,97.70
2022-08-23T03:27:23.570Z,97.80
2022-08-23T03:29:50.480Z,98.00
2022-08-23T03:32:17.364Z,98.00
2022-08-23T03:34:44.749Z,98.10
2022-08-23T03:37:11.606Z,98.30
2022-08-23T03:39:38.658Z,98.40
2022-08-23T03:42:06.696Z,98.50
2022-08-23T03:44:33.555Z,98.90
2022-08-23T03:47:00.634Z,99.00
2022-08-23T03:49:27.880Z,98.90
2022-08-23T03:51:54.889Z,98.90
2022-08-23T03:54:22.724Z,99.10
2022-08-23T03:56:56.344Z,99.30
2022-08-23T03:59:23.974Z,99.40
2022-08-23T04:01:50.867Z,99.40
2022-08-23T04:04:17.897Z,99.40
2022-08-23T04:06:45.240Z,99.40
2022-08-23T04:09:14.347Z,99.50
2022-08-23T04:11:42.959Z,99.80
2022-08-23T04:14:11.839Z,99.60
2022-08-23T04:16:40.320Z,99.70
2022-08-23T04:19:09.945Z,99.70
2022-08-23T04:21:38.769Z,99.80
2022-08-23T04:24:05.920Z,99.90
2022-08-23T04:26:33.621Z,99.90
2022-08-23T04:29:01.075Z,99.90
2022-08-23T04:31:28.514Z,99.90
2022-08-23T04:34:02.521Z,99.90
2022-08-23T04:36:38.728Z,99.90
2022-08-23T04:39:06.661Z,99.90
2022-08-23T04:41:51.821Z,99.90
2022-08-23T04:44:20.082Z,99.90
2022-08-23T04:46:48.539Z,99.90
2022-08-23T04:49:15.792Z,99.90
2022-08-23T04:51:42.610Z,99.90
2022-08-23T04:54:21.377Z,99.90
2022-08-23T04:56:51.782Z,99.90
2022-08-23T04:59:19.629Z,99.90
2022-08-23T05:01:46.624Z,99.90
2022-08-23T05:04:14.316Z,99.90
2022-08-23T05:06:41.274Z,99.90
2022-08-23T05:09:08.716Z,99.90
2022-08-23T05:11:35.532Z,99.90
2022-08-23T05:14:02.662Z,99.90
2022-08-23T05:16:29.737Z,99.90
2022-08-23T05:18:56.846Z,99.90
2022-08-23T05:21:26.505Z,99.90
2022-08-23T05:23:54.871Z,99.90
2022-08-23T05:26:22.637Z,99.90
2022-08-23T05:28:50.520Z,99.90
2022-08-23T05:31:23.144Z,99.90
2022-08-23T05:33:51.183Z,99.60
2022-08-23T05:36:20.148Z,98.90
2022-08-23T05:38:47.184Z,98.30
2022-08-23T05:41:16.739Z,97.80
2022-08-23T05:43:43.730Z,96.40
2022-08-23T05:46:16.117Z,96.60
2022-08-23T05:48:50.966Z,96.10
2022-08-23T05:51:22.461Z,95.40
2022-08-23T05:53:52.297Z,94.40
2022-08-23T05:56:27.662Z,93.00
2022-08-23T05:58:59.948Z,93.20
2022-08-23T06:01:29.545Z,91.80
2022-08-23T06:03:59.332Z,91.40
2022-08-23T06:06:34.908Z,91.10
2022-08-23T06:09:06.947Z,91.50
2022-08-23T06:11:34.313Z,91.40
2022-08-23T06:14:04.924Z,90.80
2022-08-23T06:16:43.728Z,90.90
2022-08-23T06:19:11.440Z,89.20
2022-08-23T06:21:38.764Z,89.00
2022-08-23T06:24:07.183Z,87.40
2022-08-23T06:26:43.000Z,88.00
2022-08-23T06:29:15.519Z,86.90
2022-08-23T06:31:49.419Z,86.90
2022-08-23T06:34:25.876Z,83.90
2022-08-23T06:36:57.030Z,83.40
2022-08-23T06:39:28.781Z,83.10
2022-08-23T06:42:10.132Z,83.10
2022-08-23T06:44:44.559Z,83.00
2022-08-23T06:47:11.453Z,79.40
2022-08-23T06:49:38.450Z,77.20
2022-08-23T06:52:05.580Z,76.20
2022-08-23T06:54:35.392Z,73.90
2022-08-23T06:57:03.986Z,72.60
2022-08-23T06:59:31.277Z,71.90
2022-08-23T07:02:08.807Z,69.10
2022-08-23T07:04:39.702Z,68.30
2022-08-23T07:07:11.681Z,66.50
2022-08-23T07:09:39.733Z,66.80
2022-08-23T07:12:07.086Z,64.90
2022-08-23T07:14:34.836Z,64.90
2022-08-23T07:17:03.642Z,61.40
2022-08-23T07:19:34.486Z,62.50
2022-08-23T07:22:04.928Z,59.20
2022-08-23T07:24:33.486Z,61.70
2022-08-23T07:27:07.013Z,61.20
2022-08-23T07:29:37.697Z,59.30
2022-08-23T07:32:05.784Z,59.30
2022-08-23T07:34:33.336Z,57.80
2022-08-23T07:37:01.517Z,57.00
2022-08-23T07:39:29.594Z,56.30
2022-08-23T07:41:59.024Z,57.10
2022-08-23T07:44:28.175Z,55.60
2022-08-23T07:46:56.119Z,55.00
2022-08-23T07:49:23.543Z,55.60
2022-08-23T07:51:58.650Z,56.10
2022-08-23T07:54:25.728Z,54.60
2022-08-23T07:56:52.627Z,54.20
2022-08-23T07:59:19.601Z,54.00
2022-08-23T08:01:46.708Z,54.50
2022-08-23T08:04:13.792Z,53.60
2022-08-23T08:06:59.799Z,52.80
2022-08-23T08:09:35.454Z,51.40
2022-08-23T08:12:02.512Z,49.70
2022-08-23T08:14:29.345Z,49.80
2022-08-23T08:16:58.599Z,48.80
2022-08-23T08:19:25.727Z,49.40
2022-08-23T08:21:53.206Z,50.00
2022-08-23T08:24:20.166Z,50.90
2022-08-23T08:26:47.330Z,48.20
2022-08-23T08:29:15.088Z,48.50
2022-08-23T08:31:45.746Z,49.60
2022-08-23T08:34:13.775Z,49.70
2022-08-23T08:36:53.728Z,48.90
2022-08-23T08:39:29.061Z,48.10
2022-08-23T08:42:07.100Z,48.60
2022-08-23T08:44:42.105Z,48.70
2022-08-23T08:47:37.153Z,48.90
2022-08-23T08:50:09.916Z,50.10
2022-08-23T08:52:45.085Z,49.10
2022-08-23T08:55:24.019Z,47.20
2022-08-23T08:57:52.143Z,46.60
2022-08-23T09:00:28.000Z,46.20
2022-08-23T09:02:58.937Z,47.20
2022-08-23T09:05:32.598Z,47.90
2022-08-23T09:08:45.308Z,47.20
2022-08-23T09:11:39.394Z,46.10
2022-08-23T09:14:28.405Z,45.80
2022-08-23T09:17:05.658Z,46.40
2022-08-23T09:19:38.070Z,46.20
2022-08-23T09:22:13.982Z,46.10
2022-08-23T09:24:41.601Z,46.70
2022-08-23T09:27:10.598Z,47.80
2022-08-23T09:29:50.803Z,47.20
2022-08-23T09:32:33.832Z,47.90
2022-08-23T09:35:29.911Z,48.00
2022-08-23T09:38:20.286Z,48.00
2022-08-23T09:40:51.282Z,49.70
2022-08-23T09:43:23.567Z,51.40
2022-08-23T09:45:50.277Z,51.70
2022-08-23T09:48:46.838Z,52.50
2022-08-23T09:51:41.563Z,52.90
2022-08-23T09:54:20.761Z,53.00
2022-08-23T09:56:58.392Z,53.80
2022-08-23T09:59:28.301Z,53.70
2022-08-23T10:01:59.800Z,51.90
2022-08-23T10:05:05.657Z,52.80
2022-08-23T10:07:42.991Z,52.50
2022-08-23T10:10:46.281Z,50.70
2022-08-23T10:13:15.615Z,48.60
2022-08-23T10:16:14.294Z,48.40
2022-08-23T10:18:53.300Z,45.10
2022-08-23T10:21:54.414Z,45.40
2022-08-23T10:24:54.669Z,42.80
2022-08-23T10:28:03.129Z,44.90
2022-08-23T10:30:58.002Z,44.40
2022-08-23T10:33:46.486Z,43.30
2022-08-23T10:36:44.762Z,43.90
2022-08-23T10:39:28.901Z,44.60
2022-08-23T10:42:04.845Z,43.70
2022-08-23T10:44:46.375Z,42.60
2022-08-23T10:47:31.727Z,42.10
2022-08-23T10:50:08.038Z,42.20
2022-08-23T10:52:51.973Z,41.80
2022-08-23T10:55:43.984Z,42.20
2022-08-23T10:58:27.768Z,41.90
2022-08-23T11:01:00.381Z,41.30
2022-08-23T11:03:35.215Z,42.30
2022-08-23T11:06:36.052Z,44.30
2022-08-23T11:09:20.836Z,45.00
2022-08-23T11:12:25.560Z,45.60
2022-08-23T11:15:07.721Z,46.40
2022-08-23T11:17:59.077Z,48.00
2022-08-23T11:20:50.796Z,46.80
2022-08-23T11:23:58.147Z,47.60
2022-08-23T11:26:31.430Z,48.90
2022-08-23T11:29:07.338Z,49.60
2022-08-23T11:31:51.216Z,50.30
2022-08-23T11:34:25.773Z,50.70
2022-08-23T11:37:22.056Z,50.70
2022-08-23T11:39:58.006Z,51.00
2022-08-23T11:42:50.117Z,51.40
2022-08-23T11:45:42.302Z,51.30
2022-08-23T11:48:22.605Z,51.60
2022-08-23T11:50:59.545Z,52.10
2022-08-23T11:53:41.621Z,52.00
2022-08-23T11:56:52.313Z,53.00
2022-08-23T12:00:00.262Z,53.10
2022-08-23T12:02:39.221Z,52.00
2022-08-23T12:05:46.757Z,51.80
2022-08-23T12:08:55.386Z,51.00
2022-08-23T12:11:25.860Z,51.50
2022-08-23T12:14:01.900Z,52.00
2022-08-23T12:16:34.226Z,51.80
2022-08-23T12:19:09.739Z,51.70
2022-08-23T12:21:45.733Z,51.60
2022-08-23T12:24:26.557Z,51.90
2022-08-23T12:27:55.352Z,50.90
2022-08-23T12:30:30.231Z,50.10
2022-08-23T12:33:15.159Z,50.40
2022-08-23T12:36:04.579Z,50.10
2022-08-23T12:39:08.862Z,50.00
2022-08-23T12:42:15.577Z,50.00
2022-08-23T12:44:45.814Z,49.10
2022-08-23T12:47:18.714Z,48.80
2022-08-23T12:50:21.123Z,49.10
2022-08-23T12:53:09.442Z,49.10
2022-08-23T12:55:51.431Z,49.30
2022-08-23T12:58:33.440Z,48.90
2022-08-23T13:01:16.838Z,47.90
2022-08-23T13:03:52.291Z,48.50
2022-08-23T13:06:28.001Z,48.40
2022-08-23T13:09:08.974Z,47.80
2022-08-23T13:11:38.742Z,48.10
2022-08-23T13:14:36.269Z,48.40
2022-08-23T13:17:27.357Z,47.70
2022-08-23T13:20:01.685Z,49.20
2022-08-23T13:22:31.725Z,49.00
2022-08-23T13:25:28.189Z,47.90
2022-08-23T13:27:56.184Z,47.40
2022-08-23T13:30:32.316Z,47.70
2022-08-23T13:33:08.560Z,47.00
2022-08-23T13:35:49.602Z,47.00
2022-08-23T13:38:32.072Z,46.40
2022-08-23T13:41:13.871Z,46.10
2022-08-23T13:43:43.522Z,46.80
2022-08-23T13:46:22.580Z,46.90
2022-08-23T13:48:56.657Z,46.10
2022-08-23T13:51:31.349Z,47.20
2022-08-23T13:54:02.123Z,46.90
2022-08-23T13:56:34.181Z,46.00
2022-08-23T13:59:16.237Z,45.40
2022-08-23T14:01:43.077Z,45.40
2022-08-23T14:04:09.914Z,45.50
2022-08-23T14:06:36.819Z,45.90
2022-08-23T14:09:06.461Z,46.00
2022-08-23T14:11:35.307Z,46.50
2022-08-23T14:14:02.498Z,47.00
2022-08-23T14:16:40.226Z,47.40
2022-08-23T14:19:54.777Z,47.40
2022-08-23T14:21:59.432Z,48.00
2022-08-23T14:24:27.180Z,48.20
2022-08-23T14:26:56.269Z,48.80
2022-08-23T14:29:27.884Z,49.20
2022-08-23T14:31:56.773Z,49.40
2022-08-23T14:34:25.447Z,49.50
2022-08-23T14:39:40.316Z,49.80
2022-08-23T14:42:08.062Z,50.00
2022-08-23T14:44:36.198Z,50.20
2022-08-23T14:47:05.930Z,50.30
2022-08-23T14:49:34.010Z,50.00
2022-08-23T14:52:01.272Z,49.40
2022-08-23T14:54:28.334Z,48.70
2022-08-23T14:56:55.222Z,47.70
2022-08-23T14:59:22.083Z,48.10
2022-08-23T15:01:52.559Z,47.30
2022-08-23T15:04:23.398Z,47.20
2022-08-23T15:07:19.153Z,46.80
2022-08-23T15:09:38.507Z,46.70
2022-08-23T15:14:53.116Z,46.70
2022-08-23T15:17:20.128Z,45.60
2022-08-23T15:19:47.069Z,45.80
2022-08-23T15:22:18.485Z,46.00
2022-08-23T15:24:49.626Z,45.80
2022-08-23T15:27:18.715Z,45.70
2022-08-23T15:29:45.812Z,45.40
2022-08-23T15:32:12.945Z,45.30
2022-08-23T15:34:45.635Z,45.20
2022-08-23T15:37:14.341Z,45.40
2022-08-23T15:39:42.403Z,45.60
2022-08-23T15:42:09.481Z,46.10
2022-08-23T15:44:36.476Z,46.30
2022-08-23T15:47:09.702Z,47.10
2022-08-23T15:49:36.748Z,47.80
2022-08-23T15:52:04.830Z,48.00
2022-08-23T15:54:31.972Z,48.40
2022-08-23T15:56:59.155Z,48.70
2022-08-23T15:59:26.277Z,48.80
2022-08-23T16:01:53.153Z,48.90
2022-08-23T16:04:20.230Z,49.20
2022-08-23T16:06:47.324Z,49.60
2022-08-23T16:09:23.622Z,49.80
2022-08-23T16:11:51.680Z,50.10
2022-08-23T16:14:20.563Z,50.20
2022-08-23T16:16:48.320Z,50.50
2022-08-23T16:19:16.656Z,51.10
2022-08-23T16:21:45.030Z,50.80
2022-08-23T16:24:11.990Z,50.90
2022-08-23T16:26:45.319Z,50.70
2022-08-23T16:29:17.103Z,50.80
2022-08-23T16:31:45.051Z,50.40
2022-08-23T16:34:18.301Z,50.30
2022-08-23T16:36:58.774Z,50.10
2022-08-23T16:39:26.303Z,50.10
2022-08-23T16:41:53.169Z,49.90
2022-08-23T16:44:20.172Z,49.80
2022-08-23T16:46:47.468Z,50.00
2022-08-23T16:49:18.449Z,50.40
2022-08-23T16:51:46.204Z,50.20
2022-08-23T16:54:13.657Z,50.30
2022-08-23T16:56:41.978Z,50.70
2022-08-23T16:59:12.238Z,51.30
2022-08-23T17:01:53.330Z,52.20
2022-08-23T17:04:24.263Z,52.20
2022-08-23T17:06:53.943Z,51.70
2022-08-23T17:09:22.560Z,52.10
2022-08-23T17:11:51.323Z,51.80
2022-08-23T17:14:19.359Z,51.70
2022-08-23T17:16:47.084Z,51.90
2022-08-23T17:19:14.671Z,52.50
2022-08-23T17:21:43.269Z,52.80
2022-08-23T17:24:10.544Z,53.60
2022-08-23T17:26:37.731Z,53.80
2022-08-23T17:29:04.959Z,53.90
2022-08-23T17:31:31.912Z,54.80
2022-08-23T17:34:03.240Z,55.50
2022-08-23T17:36:47.793Z,55.90
2022-08-23T17:39:19.262Z,56.80
2022-08-23T17:41:46.720Z,56.40
2022-08-23T17:44:14.260Z,56.60
2022-08-23T17:46:44.787Z,56.70
2022-08-23T17:49:13.424Z,57.40
2022-08-23T17:51:41.687Z,58.20
2022-08-23T17:54:12.900Z,58.50
2022-08-23T17:56:43.474Z,59.30
2022-08-23T17:59:21.210Z,60.40
2022-08-23T18:01:48.471Z,60.30
2022-08-23T18:04:15.362Z,61.00
2022-08-23T18:06:42.290Z,61.50
2022-08-23T18:09:09.252Z,61.80
2022-08-23T18:11:36.746Z,62.40
2022-08-23T18:14:04.864Z,63.00
2022-08-23T18:16:35.632Z,63.00
2022-08-23T18:19:07.088Z,63.20
2022-08-23T18:21:40.489Z,63.40
2022-08-23T18:24:09.221Z,64.00
2022-08-23T18:26:56.306Z,64.70
2022-08-23T18:29:23.780Z,65.20
2022-08-23T18:31:50.853Z,65.70
2022-08-23T18:34:19.129Z,66.10
2022-08-23T18:36:46.944Z,66.40
2022-08-23T18:39:15.668Z,66.60
2022-08-23T18:41:43.142Z,67.10
2022-08-23T18:44:11.194Z,67.80
2022-08-23T18:46:41.180Z,68.40
2022-08-23T18:49:10.775Z,68.80
2022-08-23T18:51:40.462Z,69.20
2022-08-23T18:54:09.124Z,69.60
2022-08-23T18:56:36.370Z,69.80
2022-08-23T18:59:06.218Z,70.20
2022-08-23T19:01:39.691Z,70.50
2022-08-23T19:04:09.511Z,70.90
2022-08-23T19:06:36.944Z,71.40
2022-08-23T19:09:06.869Z,72.20
2022-08-23T19:11:34.903Z,72.80
2022-08-23T19:14:02.153Z,73.20
2022-08-23T19:16:31.052Z,73.40
2022-08-23T19:18:58.049Z,73.80
2022-08-23T19:21:27.257Z,74.20
2022-08-23T19:23:56.916Z,74.80
2022-08-23T19:26:31.756Z,75.50
2022-08-23T19:29:00.730Z,75.70
2022-08-23T19:31:33.126Z,76.00
2022-08-23T19:34:03.747Z,75.70
2022-08-23T19:36:45.677Z,76.10
2022-08-23T19:39:16.558Z,76.20
2022-08-23T19:41:43.686Z,77.30
2022-08-23T19:44:11.282Z,77.50
2022-08-23T19:46:42.026Z,77.80
2022-08-23T19:49:12.285Z,78.20
2022-08-23T19:51:39.879Z,78.60
2022-08-23T19:54:11.463Z,78.80
2022-08-23T19:56:48.402Z,79.00
2022-08-23T19:59:22.802Z,79.60
2022-08-23T20:01:52.918Z,80.10
2022-08-23T20:04:21.852Z,80.30
2022-08-23T20:06:50.474Z,80.40
2022-08-23T20:09:20.807Z,80.70
2022-08-23T20:11:47.950Z,80.90
2022-08-23T20:14:15.812Z,81.10
2022-08-23T20:16:42.822Z,81.50
2022-08-23T20:19:11.441Z,81.90
2022-08-23T20:21:40.879Z,82.30
2022-08-23T20:24:13.851Z,82.80
2022-08-23T20:26:46.546Z,83.30
2022-08-23T20:29:22.879Z,83.80
2022-08-23T20:31:57.825Z,84.50
2022-08-23T20:34:26.556Z,85.10
2022-08-23T20:36:56.048Z,85.30
2022-08-23T20:39:24.348Z,85.90
2022-08-23T20:41:53.233Z,86.50
2022-08-23T20:44:22.765Z,86.80
2022-08-23T20:46:54.350Z,87.10
2022-08-23T20:49:24.670Z,87.50
2022-08-23T20:51:52.329Z,87.70
2022-08-23T20:54:20.023Z,88.10
2022-08-23T20:56:51.276Z,88.60
2022-08-23T20:59:19.455Z,88.90
2022-08-23T21:01:46.814Z,89.50
2022-08-23T21:04:13.971Z,90.00
2022-08-23T21:06:47.514Z,90.20
2022-08-23T21:09:20.689Z,90.40
2022-08-23T21:11:51.084Z,90.60
2022-08-23T21:14:20.605Z,90.70
2022-08-23T21:16:48.433Z,90.90
2022-08-23T21:19:16.424Z,91.20
2022-08-23T21:21:44.261Z,91.80
2022-08-23T21:24:12.759Z,91.40
2022-08-23T21:26:40.643Z,91.70
2022-08-23T21:29:09.605Z,91.80
2022-08-23T21:31:37.338Z,92.00
2022-08-23T21:34:06.405Z,92.00
2022-08-23T21:36:33.354Z,92.30
2022-08-23T21:39:00.419Z,92.20
2022-08-23T21:41:38.595Z,92.40
2022-08-23T21:44:10.706Z,92.60
2022-08-23T21:46:38.132Z,92.80
2022-08-23T21:49:06.595Z,93.00
2022-08-23T21:51:34.999Z,93.30
2022-08-23T21:54:03.307Z,93.40
2022-08-23T21:56:31.126Z,93.50
2022-08-23T21:59:00.852Z,93.80
2022-08-23T22:01:28.303Z,93.80
2022-08-23T22:03:57.258Z,94.00
2022-08-23T22:06:24.555Z,94.20
2022-08-23T22:08:51.905Z,94.40
2022-08-23T22:11:19.475Z,94.50
2022-08-23T22:13:46.434Z,94.60
2022-08-23T22:16:13.450Z,94.80
2022-08-23T22:18:41.114Z,95.00
2022-08-23T22:21:08.428Z,96.30
2022-08-23T22:23:37.031Z,96.80
2022-08-23T22:26:06.819Z,96.20
2022-08-23T22:28:34.418Z,96.10
2022-08-23T22:31:05.107Z,96.30
2022-08-23T22:33:33.294Z,96.30
2022-08-23T22:36:11.278Z,96.50
2022-08-23T22:38:39.873Z,96.50
2022-08-23T22:41:07.168Z,96.50
2022-08-23T22:43:34.191Z,96.70
2022-08-23T22:46:04.758Z,96.80
2022-08-23T22:48:35.096Z,97.10
2022-08-23T22:51:19.314Z,97.20
2022-08-23T22:53:52.122Z,97.40
2022-08-23T22:56:24.778Z,97.60
2022-08-23T22:58:54.136Z,97.60
2022-08-23T23:01:27.664Z,97.70
2022-08-23T23:03:57.652Z,97.80
2022-08-23T23:06:26.145Z,97.90
2022-08-23T23:08:54.468Z,98.10
2022-08-23T23:11:23.207Z,98.20
2022-08-23T23:13:51.307Z,98.40
2022-08-23T23:16:22.937Z,98.50
2022-08-23T23:19:09.074Z,98.50
2022-08-23T23:21:43.999Z,98.60
2022-08-23T23:24:15.220Z,98.50
2022-08-23T23:26:42.494Z,98.70
2022-08-23T23:29:14.818Z,98.80
2022-08-23T23:31:41.885Z,98.90
2022-08-23T23:34:09.630Z,99.00
2022-08-23T23:36:37.549Z,99.10
2022-08-23T23:39:07.752Z,99.30
2022-08-23T23:41:34.703Z,99.40
2022-08-23T23:44:02.039Z,99.60
2022-08-23T23:46:29.262Z,99.90
2022-08-23T23:48:56.366Z,99.80
2022-08-23T23:51:31.152Z,99.90
2022-08-23T23:54:01.150Z,99.90
2022-08-23T23:56:30.569Z,99.90
2022-08-23T23:58:58.553Z,99.90
